createdAt,value
2022-12-03T00:03:18.774Z,101023.41
2022-12-03T00:08:15.450Z,101012.19
2022-12-03T00:13:11.958Z,101004.41
2022-12-03T00:18:08.302Z,101016.88
2022-12-03T00:23:04.680Z,101018.59
2022-12-03T00:28:01.052Z,101015.94
2022-12-03T00:32:57.798Z,101013.44
2022-12-03T00:37:55.150Z,101013.34
2022-12-03T00:42:51.609Z,101014.09
2022-12-03T00:47:47.975Z,101015.88
2022-12-03T00:52:44.350Z,101008.03
2022-12-03T00:57:41.205Z,100996.81
2022-12-03T01:02:37.638Z,100993.47
2022-12-03T01:07:34.108Z,101004.66
2022-12-03T01:12:30.545Z,101005.50
2022-12-03T01:17:27.010Z,101006.38
2022-12-03T01:22:23.450Z,101009.75
2022-12-03T01:27:19.879Z,101022.09
2022-12-03T01:32:22.195Z,101021.22
2022-12-03T01:37:21.400Z,101014.34
2022-12-03T01:42:26.621Z,101019.75
2022-12-03T01:47:28.799Z,101015.41
2022-12-03T01:52:30.335Z,101025.16
2022-12-03T01:57:36.750Z,101026.00
2022-12-03T02:02:33.470Z,101026.09
2022-12-03T02:07:33.875Z,101026.13
2022-12-03T02:12:36.645Z,101024.41
2022-12-03T02:17:33.517Z,101025.34
2022-12-03T02:22:48.659Z,101027.06
2022-12-03T02:27:45.830Z,101020.97
2022-12-03T02:32:42.511Z,101020.13
2022-12-03T02:37:38.980Z,101015.84
2022-12-03T02:42:53.484Z,101016.72
2022-12-03T02:47:54.324Z,101023.75
2022-12-03T02:52:54.538Z,101017.00
2022-12-03T02:57:51.796Z,101019.66
2022-12-03T03:02:49.577Z,101018.84
2022-12-03T03:07:46.266Z,101016.16
2022-12-03T03:12:42.946Z,101017.94
2022-12-03T03:17:40.336Z,101016.34
2022-12-03T03:22:40.397Z,101017.34
2022-12-03T03:27:38.103Z,101009.59
2022-12-03T03:32:35.741Z,101001.84
2022-12-03T03:37:32.323Z,101003.69
2022-12-03T03:42:28.928Z,101004.50
2022-12-03T03:47:25.737Z,100997.50
2022-12-03T03:52:23.064Z,101000.97
2022-12-03T03:57:19.536Z,101001.00
2022-12-03T04:02:26.258Z,100987.16
2022-12-03T04:07:22.760Z,100982.88
2022-12-03T04:12:37.635Z,100988.88
2022-12-03T04:17:34.058Z,100988.81
2022-12-03T04:22:42.872Z,100982.19
2022-12-03T04:27:58.032Z,100980.28
2022-12-03T04:33:13.014Z,100975.88
2022-12-03T04:38:10.778Z,100969.81
2022-12-03T04:43:07.193Z,100971.63
2022-12-03T04:48:03.788Z,100961.25
2022-12-03T04:53:00.168Z,100971.72
2022-12-03T04:57:56.617Z,100967.41
2022-12-03T05:02:53.075Z,100966.63
2022-12-03T05:07:49.538Z,100966.63
2022-12-03T05:12:45.963Z,100971.28
2022-12-03T05:17:42.383Z,100973.00
2022-12-03T05:22:38.769Z,100975.63
2022-12-03T05:27:35.507Z,100974.00
2022-12-03T05:32:32.157Z,100966.88
2022-12-03T05:37:28.612Z,100963.59
2022-12-03T05:42:43.714Z,100964.31
2022-12-03T05:47:40.358Z,100967.81
2022-12-03T05:52:36.803Z,100966.03
2022-12-03T05:57:33.531Z,100972.91
2022-12-03T06:02:30.072Z,100971.28
2022-12-03T06:07:26.789Z,100978.31
2022-12-03T06:12:23.275Z,100968.72
2022-12-03T06:17:19.707Z,100978.16
2022-12-03T06:22:16.118Z,100966.81
2022-12-03T06:27:12.774Z,100961.69
2022-12-03T06:32:09.353Z,100966.09
2022-12-03T06:37:05.944Z,100968.63
2022-12-03T06:42:02.404Z,100974.88
2022-12-03T06:46:58.975Z,100971.25
2022-12-03T06:51:56.125Z,100965.94
2022-12-03T06:56:52.583Z,100971.16
2022-12-03T07:01:49.100Z,100973.81
2022-12-03T07:06:45.943Z,100965.06
2022-12-03T07:11:42.540Z,100968.66
2022-12-03T07:16:39.465Z,100958.13
2022-12-03T07:21:36.170Z,100959.06
2022-12-03T07:26:32.841Z,100968.66
2022-12-03T07:31:29.421Z,100957.97
2022-12-03T07:36:26.963Z,100954.06
2022-12-03T07:41:23.574Z,100952.34
2022-12-03T07:46:19.987Z,100956.44
2022-12-03T07:51:16.443Z,100958.28
2022-12-03T07:56:12.859Z,100949.75
2022-12-03T08:01:10.352Z,100952.47
2022-12-03T08:06:07.116Z,100943.84
2022-12-03T08:11:04.149Z,100945.78
2022-12-03T08:16:10.615Z,100944.81
2022-12-03T08:21:11.200Z,100939.69
2022-12-03T08:26:23.636Z,100944.78
2022-12-03T08:31:32.502Z,100943.84
2022-12-03T08:36:33.384Z,100941.34
2022-12-03T08:41:48.472Z,100935.19
2022-12-03T08:46:45.299Z,100941.00
2022-12-03T08:51:41.762Z,100945.28
2022-12-03T08:56:39.254Z,100942.13
2022-12-03T09:01:44.497Z,100942.00
2022-12-03T09:06:41.068Z,100936.47
2022-12-03T09:11:37.666Z,100944.28
2022-12-03T09:16:34.238Z,100937.97
2022-12-03T09:21:30.676Z,100941.38
2022-12-03T09:26:28.292Z,100936.91
2022-12-03T09:31:25.066Z,100927.41
2022-12-03T09:36:21.877Z,100928.97
2022-12-03T09:41:18.934Z,100934.81
2022-12-03T09:46:15.601Z,100936.59
2022-12-03T09:51:12.895Z,100940.47
2022-12-03T09:56:21.972Z,100935.69
2022-12-03T10:01:18.833Z,100933.31
2022-12-03T10:06:22.492Z,100928.06
2022-12-03T10:11:21.615Z,100923.22
2022-12-03T10:16:20.853Z,100918.78
2022-12-03T10:21:26.112Z,100912.47
2022-12-03T10:26:37.697Z,100919.44
2022-12-03T10:31:37.013Z,100910.31
2022-12-03T10:36:33.981Z,100896.09
2022-12-03T10:41:30.443Z,100897.59
2022-12-03T10:46:26.999Z,100895.38
2022-12-03T10:51:23.561Z,100890.31
2022-12-03T10:56:25.444Z,100884.22
2022-12-03T11:01:24.898Z,100880.78
2022-12-03T11:06:23.367Z,100876.59
2022-12-03T11:11:20.965Z,100862.44
2022-12-03T11:16:38.979Z,100863.47
2022-12-03T11:22:01.109Z,100863.56
2022-12-03T11:26:57.511Z,100862.47
2022-12-03T11:31:54.036Z,100856.25
2022-12-03T11:37:09.289Z,100846.91
2022-12-03T11:42:26.910Z,100856.59
2022-12-03T11:47:23.422Z,100842.16
2022-12-03T11:52:32.961Z,100829.72
2022-12-03T11:57:36.564Z,100825.44
2022-12-03T12:02:33.792Z,100824.00
2022-12-03T12:07:36.857Z,100824.91
2022-12-03T12:12:54.327Z,100816.06
2022-12-03T12:17:51.292Z,100810.50
2022-12-03T12:22:47.785Z,100805.34
2022-12-03T12:27:49.392Z,100806.44
2022-12-03T12:32:48.538Z,100797.25
2022-12-03T12:38:07.774Z,100788.53
2022-12-03T12:43:24.440Z,100786.75
2022-12-03T12:48:33.945Z,100790.53
2022-12-03T12:53:38.747Z,100790.41
2022-12-03T12:58:35.860Z,100781.56
2022-12-03T13:03:34.983Z,100777.31
2022-12-03T13:08:39.704Z,100775.47
2022-12-03T13:13:44.181Z,100768.63
2022-12-03T13:18:47.938Z,100768.16
2022-12-03T13:23:44.300Z,100759.31
2022-12-03T13:28:41.643Z,100759.72
2022-12-03T13:33:38.833Z,100761.69
2022-12-03T13:38:35.279Z,100752.56
2022-12-03T13:43:33.063Z,100753.31
2022-12-03T13:48:35.590Z,100749.91
2022-12-03T13:53:36.752Z,100745.50
2022-12-03T13:58:33.113Z,100750.69
2022-12-03T14:03:29.467Z,100755.28
2022-12-03T14:08:25.834Z,100738.72
2022-12-03T14:13:22.242Z,100737.13
2022-12-03T14:18:19.068Z,100729.13
2022-12-03T14:23:15.813Z,100729.75
2022-12-03T14:28:12.391Z,100728.03
2022-12-03T14:33:08.903Z,100726.53
2022-12-03T14:38:05.330Z,100732.09
2022-12-03T14:43:01.840Z,100730.16
2022-12-03T14:47:58.366Z,100737.97
2022-12-03T14:52:54.897Z,100739.75
2022-12-03T14:57:51.465Z,100738.88
2022-12-03T15:02:47.981Z,100727.50
2022-12-03T15:07:44.423Z,100729.38
2022-12-03T15:12:40.916Z,100727.66
2022-12-03T15:17:37.363Z,100723.41
2022-12-03T15:22:33.817Z,100736.59
2022-12-03T15:27:30.186Z,100738.31
2022-12-03T15:32:26.663Z,100732.34
2022-12-03T15:37:27.565Z,100711.66
2022-12-03T15:42:24.013Z,100703.81
2022-12-03T15:47:20.378Z,100712.53
2022-12-03T15:52:17.113Z,100721.44
2022-12-03T15:57:13.532Z,100718.72
2022-12-03T16:02:10.190Z,100707.28
2022-12-03T16:07:07.180Z,100718.47
2022-12-03T16:12:04.031Z,100719.19
2022-12-03T16:22:12.264Z,100707.03
2022-12-03T16:27:08.843Z,100715.13
2022-12-03T16:32:05.375Z,100721.31
2022-12-03T16:37:01.826Z,100703.84
2022-12-03T16:41:58.331Z,100696.00
2022-12-03T16:46:54.968Z,100701.56
2022-12-03T16:51:51.484Z,100704.06
2022-12-03T16:56:48.046Z,100718.66
2022-12-03T17:01:44.544Z,100701.09
2022-12-03T17:06:41.108Z,100708.06
2022-12-03T17:11:37.640Z,100708.72
2022-12-03T17:16:34.215Z,100702.69
2022-12-03T17:21:33.723Z,100712.28
2022-12-03T17:26:31.621Z,100707.06
2022-12-03T17:31:28.122Z,100704.50
2022-12-03T17:36:25.498Z,100704.41
2022-12-03T17:41:22.484Z,100701.63
2022-12-03T17:46:18.982Z,100705.97
2022-12-03T17:51:15.475Z,100701.59
2022-12-03T17:56:11.857Z,100696.38
2022-12-03T18:01:11.535Z,100699.13
2022-12-03T18:06:08.219Z,100693.03
2022-12-03T18:11:04.721Z,100697.38
2022-12-03T18:16:01.151Z,100689.53
2022-12-03T18:21:01.981Z,100690.53
2022-12-03T18:25:58.623Z,100687.81
2022-12-03T18:30:55.093Z,100684.13
2022-12-03T18:35:57.146Z,100686.56
2022-12-03T18:40:56.357Z,100687.53
2022-12-03T18:45:52.797Z,100680.53
2022-12-03T18:50:49.419Z,100685.69
2022-12-03T18:55:46.972Z,100680.59
2022-12-03T19:00:43.618Z,100672.09
2022-12-03T19:05:40.040Z,100664.34
2022-12-03T19:10:36.442Z,100670.50
2022-12-03T19:15:36.296Z,100671.22
2022-12-03T19:20:33.226Z,100663.22
2022-12-03T19:25:29.863Z,100667.72
2022-12-03T19:30:26.504Z,100663.47
2022-12-03T19:35:23.015Z,100673.94
2022-12-03T19:40:19.542Z,100671.25
2022-12-03T19:45:16.078Z,100680.03
2022-12-03T19:50:18.024Z,100672.13
2022-12-03T19:55:19.646Z,100675.56
2022-12-03T20:00:16.475Z,100674.03
2022-12-03T20:05:12.895Z,100674.97
2022-12-03T20:10:09.747Z,100671.34
2022-12-03T20:15:06.817Z,100672.84
2022-12-03T20:20:04.354Z,100664.84
2022-12-03T20:25:03.987Z,100665.97
2022-12-03T20:30:00.621Z,100665.09
2022-12-03T20:34:57.096Z,100664.34
2022-12-03T20:39:54.269Z,100666.97
2022-12-03T20:44:52.592Z,100660.00
2022-12-03T20:49:49.052Z,100660.78
2022-12-03T20:54:45.491Z,100655.75
2022-12-03T20:59:41.941Z,100662.66
2022-12-03T21:04:38.324Z,100659.00
2022-12-03T21:09:34.730Z,100649.31
2022-12-03T21:14:32.757Z,100651.88
2022-12-03T21:19:29.199Z,100644.28
2022-12-03T21:24:25.852Z,100654.81
2022-12-03T21:29:22.776Z,100648.03
2022-12-03T21:34:22.279Z,100641.94
2022-12-03T21:39:19.386Z,100635.81
2022-12-03T21:44:16.301Z,100627.91
2022-12-03T21:49:12.729Z,100633.19
2022-12-03T21:54:09.097Z,100629.53
2022-12-03T21:59:05.452Z,100630.59
2022-12-03T22:04:01.823Z,100628.75
2022-12-03T22:08:58.187Z,100622.75
2022-12-03T22:13:54.701Z,100623.53
2022-12-03T22:18:51.769Z,100615.75
2022-12-03T22:23:48.143Z,100624.34
2022-12-03T22:28:46.627Z,100611.34
2022-12-03T22:33:45.535Z,100603.56
2022-12-03T22:38:41.842Z,100599.88
2022-12-03T22:43:38.835Z,100602.72
2022-12-03T22:48:35.841Z,100612.34
2022-12-03T22:53:32.221Z,100601.00
2022-12-03T22:58:28.705Z,100599.28
2022-12-03T23:03:25.162Z,100597.59
2022-12-03T23:08:21.905Z,100593.22
2022-12-03T23:13:19.731Z,100592.38
2022-12-03T23:18:16.476Z,100592.25
2022-12-03T23:23:13.172Z,100601.84
2022-12-03T23:28:10.708Z,100595.63
2022-12-03T23:33:07.249Z,100592.25
2022-12-03T23:38:04.078Z,100588.75
2022-12-03T23:43:00.620Z,100588.78
2022-12-03T23:47:58.438Z,100584.31
2022-12-03T23:52:55.459Z,100587.13
2022-12-03T23:57:51.925Z,100579.22
